Time;durP1;ratioP1;P1;durP2;ratioP2;P2;SDS_P1;SDS_P2;PMS_P1;PMS_P2;Temp;Humidity;BMP_temperature;BMP_pressure;BME280_temperature;BME280_humidity;BME280_pressure;Samples;Min_cycle;Max_cycle;Signal;HPM_P1;HPM_P2
2023/08/28 00:00:24;;;;;;;48.03;22.67;;;;;;;29.14;nan;97448.22;4877575;29;20552;-68
2023/08/28 00:02:55;;;;;;;43.63;21.70;;;;;;;29.12;nan;97447.75;4883209;29;20528;-68
2023/08/28 00:05:24;;;;;;;41.45;21.73;;;;;;;29.09;nan;97448.44;4889285;29;20044;-69
2023/08/28 00:07:56;;;;;;;48.70;21.30;;;;;;;29.14;nan;97450.94;4890956;29;20128;-69
2023/08/28 00:10:26;;;;;;;40.40;22.42;;;;;;;29.19;nan;97452.66;4889274;29;20048;-69
2023/08/28 00:12:55;;;;;;;44.97;21.67;;;;;;;29.25;nan;97464.91;4887060;29;20187;-68
2023/08/28 00:15:25;;;;;;;39.70;22.30;;;;;;;29.19;nan;97464.34;4889576;29;20044;-69
2023/08/28 00:17:55;;;;;;;36.42;21.08;;;;;;;29.13;nan;97476.63;4886270;29;20143;-68
2023/08/28 00:20:24;;;;;;;49.15;21.73;;;;;;;29.14;nan;97485.59;4890072;29;20136;-68
2023/08/28 00:22:53;;;;;;;39.65;22.08;;;;;;;29.23;nan;97495.25;4878530;29;20157;-68
2023/08/28 00:25:23;;;;;;;43.20;21.00;;;;;;;29.22;nan;97495.59;4881426;29;20052;-68
2023/08/28 00:27:53;;;;;;;39.55;22.17;;;;;;;29.20;nan;97501.41;4890331;29;20435;-69
2023/08/28 00:30:22;;;;;;;41.65;22.90;;;;;;;29.16;nan;97489.59;4887661;29;20060;-67
2023/08/28 00:32:51;;;;;;;50.17;22.27;;;;;;;29.18;nan;97484.56;4888068;29;20066;-68
2023/08/28 00:35:22;;;;;;;39.47;20.98;;;;;;;29.22;nan;97485.47;4887836;29;20052;-66
2023/08/28 00:37:52;;;;;;;33.70;20.33;;;;;;;29.20;nan;97495.94;4884215;29;20053;-66
2023/08/28 00:40:22;;;;;;;56.13;22.95;;;;;;;29.19;nan;97502.53;4888183;29;20057;-67
2023/08/28 00:42:53;;;;;;;40.97;21.95;;;;;;;29.19;nan;97515.38;4886908;29;20053;-67
2023/08/28 00:45:26;;;;;;;42.97;20.98;;;;;;;29.20;nan;97519.69;4871230;29;20057;-68
2023/08/28 00:47:56;;;;;;;40.45;20.45;;;;;;;29.19;nan;97516.16;4881035;29;20063;-67
2023/08/28 00:50:26;;;;;;;38.80;20.20;;;;;;;29.15;nan;97519.94;4862818;29;20482;-67
2023/08/28 00:52:55;;;;;;;33.88;15.93;;;;;;;29.15;nan;97518.00;4881896;29;20533;-66
2023/08/28 00:55:24;;;;;;;40.40;15.75;;;;;;;29.09;nan;97524.81;4876506;29;20813;-66
2023/08/28 00:57:54;;;;;;;34.50;14.80;;;;;;;29.17;nan;97531.28;4881352;29;20063;-66
2023/08/28 01:00:25;;;;;;;34.92;14.48;;;;;;;29.00;nan;97526.84;4880739;29;20052;-66
2023/08/28 01:02:56;;;;;;;39.47;13.38;;;;;;;28.90;nan;97530.81;4870175;29;20076;-66
2023/08/28 01:05:52;;;;;;;40.00;15.00;;;;;;;28.78;nan;97589.97;4868629;29;20041;-66
2023/08/28 01:08:36;;;;;;;31.98;12.55;;;;;;;27.99;nan;97629.91;4854502;29;20126;-66
2023/08/28 01:11:39;;;;;;;24.92;7.78;;;;;;;26.88;nan;97647.56;4880047;29;20066;-65
2023/08/28 01:14:19;;;;;;;11.70;3.33;;;;;;;26.42;nan;97663.78;4879238;29;20079;-67
2023/08/28 01:16:54;;;;;;;8.77;2.80;;;;;;;25.73;nan;97669.09;4881205;29;20056;-65
2023/08/28 01:19:33;;;;;;;17.30;2.83;;;;;;;25.21;nan;97638.28;4881420;29;20294;-67
2023/08/28 01:22:17;;;;;;;16.15;2.70;;;;;;;24.18;nan;97624.91;4880654;29;20044;-67
2023/08/28 01:24:51;;;;;;;9.73;3.00;;;;;;;23.91;nan;97614.13;4886916;29;20052;-65
2023/08/28 01:27:23;;;;;;;9.15;3.42;;;;;;;23.34;nan;97648.84;4886640;29;20052;-65
2023/08/28 01:30:16;;;;;;;10.63;3.85;;;;;;;23.19;nan;97654.56;4888016;29;20410;-65
2023/08/28 01:32:46;;;;;;;10.90;4.70;;;;;;;22.89;nan;97655.09;4872011;29;20062;-65
2023/08/28 01:35:28;;;;;;;9.98;4.93;;;;;;;22.64;nan;97635.53;4887213;29;20652;-66
2023/08/28 01:38:22;;;;;;;6.20;3.92;;;;;;;22.65;nan;97683.03;4887318;29;20052;-68
2023/08/28 01:41:07;;;;;;;10.05;4.43;;;;;;;22.76;nan;97700.66;4869717;29;20123;-68
2023/08/28 01:43:45;;;;;;;8.85;4.28;;;;;;;22.66;nan;97684.59;4886951;29;20052;-67
2023/08/28 01:46:17;;;;;;;8.63;4.28;;;;;;;22.96;nan;97664.44;4870757;29;20048;-66
2023/08/28 01:48:53;;;;;;;7.63;3.80;;;;;;;22.96;nan;97633.91;4888722;29;20049;-67
2023/08/28 01:51:23;;;;;;;7.68;4.18;;;;;;;22.72;nan;97607.88;4889918;29;20099;-67
2023/08/28 01:53:53;;;;;;;6.63;4.13;;;;;;;22.73;nan;97585.19;4893070;29;20049;-67
2023/08/28 01:56:24;;;;;;;7.78;4.57;;;;;;;22.63;nan;97576.44;4890442;29;20056;-67
2023/08/28 01:58:56;;;;;;;9.23;6.13;;;;;;;22.93;nan;97584.00;4874446;29;20044;-67
2023/08/28 02:01:27;;;;;;;11.60;5.93;;;;;;;23.23;nan;97596.13;4882087;29;20930;-67
2023/08/28 02:03:57;;;;;;;8.20;5.38;;;;;;;23.29;nan;97592.19;4884408;29;20063;-66
2023/08/28 02:06:26;;;;;;;10.88;6.68;;;;;;;23.17;nan;97584.59;4886454;29;20064;-67
2023/08/28 02:08:56;;;;;;;7.68;4.70;;;;;;;23.42;nan;97588.66;4883766;29;20059;-67
2023/08/28 02:11:27;;;;;;;6.57;4.25;;;;;;;23.39;nan;97580.38;4882895;29;20049;-67
2023/08/28 02:13:57;;;;;;;7.28;4.13;;;;;;;23.61;nan;97592.09;4888186;29;20055;-66
2023/08/28 02:16:27;;;;;;;7.07;3.63;;;;;;;23.37;nan;97596.09;4886416;29;20155;-67
2023/08/28 02:18:56;;;;;;;4.75;3.20;;;;;;;23.33;nan;97598.59;4881889;29;20113;-67
2023/08/28 02:21:25;;;;;;;6.57;3.83;;;;;;;23.33;nan;97603.19;4885210;29;20065;-67
2023/08/28 02:23:55;;;;;;;5.80;3.63;;;;;;;23.38;nan;97598.50;4879566;29;20565;-67
2023/08/28 02:26:24;;;;;;;5.03;3.53;;;;;;;23.52;nan;97601.22;4864904;29;20837;-68
2023/08/28 02:28:53;;;;;;;5.38;3.90;;;;;;;23.51;nan;97605.00;4884031;29;20776;-67
2023/08/28 02:31:23;;;;;;;7.53;3.53;;;;;;;23.58;nan;97608.91;4872216;29;20056;-67
2023/08/28 02:33:52;;;;;;;6.43;3.58;;;;;;;23.48;nan;97624.53;4878826;29;20063;-67
2023/08/28 02:36:21;;;;;;;6.80;3.45;;;;;;;23.41;nan;97621.44;4881856;29;20057;-66
2023/08/28 02:38:51;;;;;;;6.03;3.65;;;;;;;23.60;nan;97619.41;4884342;29;20063;-67
2023/08/28 02:41:20;;;;;;;6.22;3.35;;;;;;;23.41;nan;97613.31;4868616;29;20347;-66
2023/08/28 02:43:50;;;;;;;4.80;3.20;;;;;;;23.58;nan;97627.03;4883131;29;20052;-67
2023/08/28 02:46:19;;;;;;;5.10;2.97;;;;;;;23.74;nan;97631.00;4885309;29;20525;-65
2023/08/28 02:48:48;;;;;;;6.38;3.17;;;;;;;23.91;nan;97636.56;4866688;29;20053;-67
2023/08/28 02:51:17;;;;;;;5.07;3.03;;;;;;;23.84;nan;97632.69;4883636;29;20060;-67
2023/08/28 02:53:47;;;;;;;6.68;3.85;;;;;;;24.19;nan;97617.59;4881520;29;20053;-67
2023/08/28 02:56:23;;;;;;;3.88;3.20;;;;;;;24.09;nan;97600.44;4871211;29;20059;-68
2023/08/28 02:58:54;;;;;;;4.47;2.97;;;;;;;23.81;nan;97576.53;4872854;29;20784;-67
2023/08/28 03:01:24;;;;;;;5.60;3.30;;;;;;;24.16;nan;97595.44;4862517;29;20743;-67
2023/08/28 03:03:54;;;;;;;3.47;2.65;;;;;;;24.84;nan;97618.63;4880132;29;20101;-67
2023/08/28 03:06:23;;;;;;;5.00;3.13;;;;;;;24.62;nan;97624.09;4867673;29;20048;-67
2023/08/28 03:08:53;;;;;;;3.40;2.63;;;;;;;24.47;nan;97627.19;4867741;29;20053;-68
2023/08/28 03:11:22;;;;;;;4.30;2.78;;;;;;;24.82;nan;97618.16;4889791;29;20055;-68
2023/08/28 03:13:51;;;;;;;5.38;3.00;;;;;;;25.09;nan;97619.91;4872277;29;20072;-67
2023/08/28 03:16:21;;;;;;;4.35;2.97;;;;;;;25.23;nan;97606.22;4879633;29;20063;-67
2023/08/28 03:18:51;;;;;;;7.20;3.22;;;;;;;25.37;nan;97601.50;4872299;29;20566;-68
2023/08/28 03:21:20;;;;;;;4.07;2.55;;;;;;;25.46;nan;97603.13;4864398;29;20068;-67
2023/08/28 03:23:50;;;;;;;4.65;3.42;;;;;;;25.76;nan;97620.44;4871908;29;20053;-67
2023/08/28 03:26:19;;;;;;;4.22;2.88;;;;;;;25.98;nan;97633.06;4865304;29;20498;-67
2023/08/28 03:28:48;;;;;;;4.97;3.13;;;;;;;26.23;nan;97634.22;4871007;29;20060;-68
2023/08/28 03:31:17;;;;;;;5.13;3.42;;;;;;;26.22;nan;97627.19;4871557;29;20558;-68
2023/08/28 03:33:47;;;;;;;4.88;2.97;;;;;;;26.40;nan;97627.97;4886235;29;20076;-67
2023/08/28 03:36:17;;;;;;;4.57;2.78;;;;;;;26.39;nan;97629.88;4864256;29;20139;-67
2023/08/28 03:38:46;;;;;;;6.63;3.70;;;;;;;26.20;nan;97641.06;4885514;29;20058;-67
2023/08/28 03:41:16;;;;;;;5.25;3.30;;;;;;;26.20;nan;97643.00;4883865;29;20303;-67
2023/08/28 03:43:46;;;;;;;4.10;2.38;;;;;;;26.47;nan;97650.81;4890178;29;20068;-67
2023/08/28 03:46:15;;;;;;;6.50;2.60;;;;;;;26.57;nan;97657.81;4873889;29;20092;-67
2023/08/28 03:48:45;;;;;;;4.30;2.92;;;;;;;26.96;nan;97654.09;4887932;29;20709;-67
2023/08/28 03:51:14;;;;;;;5.18;3.00;;;;;;;27.15;nan;97665.41;4865035;29;20399;-67
2023/08/28 03:53:43;;;;;;;5.03;2.95;;;;;;;27.21;nan;97673.06;4881950;29;20049;-67
2023/08/28 03:56:15;;;;;;;5.63;2.90;;;;;;;27.37;nan;97672.50;4887125;29;20476;-67
2023/08/28 03:58:44;;;;;;;4.88;2.83;;;;;;;27.57;nan;97678.03;4872035;29;20249;-66
2023/08/28 04:01:14;;;;;;;5.30;3.03;;;;;;;27.58;nan;97690.53;4886575;29;20056;-68
2023/08/28 04:03:43;;;;;;;5.72;3.17;;;;;;;27.77;nan;97702.91;4878136;29;20065;-68
2023/08/28 04:06:12;;;;;;;5.68;3.13;;;;;;;27.90;nan;97696.44;4865350;29;20067;-68
2023/08/28 04:08:42;;;;;;;5.68;3.22;;;;;;;27.97;nan;97702.16;4872361;29;20056;-67
2023/08/28 04:11:11;;;;;;;4.05;2.97;;;;;;;28.19;nan;97707.34;4867571;29;20056;-67
2023/08/28 04:13:43;;;;;;;3.28;2.63;;;;;;;28.25;nan;97707.91;4886908;29;20056;-67
2023/08/28 04:16:13;;;;;;;4.60;2.50;;;;;;;28.19;nan;97717.44;4884301;29;20745;-67
2023/08/28 04:18:44;;;;;;;4.55;2.78;;;;;;;28.30;nan;97721.34;4885241;29;20140;-68
2023/08/28 04:21:14;;;;;;;6.20;2.88;;;;;;;28.52;nan;97723.72;4876564;29;20043;-68
2023/08/28 04:23:44;;;;;;;7.43;3.00;;;;;;;28.50;nan;97718.59;4873450;29;20041;-66
2023/08/28 04:26:13;;;;;;;5.03;2.90;;;;;;;28.54;nan;97726.94;4871309;29;20406;-66
2023/08/28 04:28:42;;;;;;;5.47;2.90;;;;;;;28.68;nan;97715.75;4893372;29;20048;-66
2023/08/28 04:31:13;;;;;;;3.20;2.90;;;;;;;28.83;nan;97726.84;4875034;29;20052;-66
2023/08/28 04:33:44;;;;;;;5.03;2.70;;;;;;;28.77;nan;97732.84;4890444;29;20056;-66
2023/08/28 04:36:14;;;;;;;6.63;2.55;;;;;;;28.98;nan;97731.69;4875491;29;20056;-65
2023/08/28 04:38:43;;;;;;;4.22;2.80;;;;;;;28.96;nan;97735.88;4889815;29;20524;-66
2023/08/28 04:41:12;;;;;;;5.55;2.85;;;;;;;29.16;nan;97735.03;4871710;29;20064;-66
2023/08/28 04:43:41;;;;;;;4.13;2.50;;;;;;;29.34;nan;97738.41;4887973;29;20459;-67
2023/08/28 04:46:11;;;;;;;5.53;2.80;;;;;;;29.50;nan;97744.00;4869783;29;20045;-66
2023/08/28 04:48:41;;;;;;;6.00;2.60;;;;;;;29.74;nan;97746.75;4883837;29;20044;-69
2023/08/28 04:51:10;;;;;;;3.50;2.50;;;;;;;29.95;nan;97743.94;4864853;29;20052;-70
2023/08/28 04:53:40;;;;;;;4.20;2.72;;;;;;;30.31;nan;97747.44;4872849;29;20077;-71
2023/08/28 04:56:09;;;;;;;7.78;2.30;;;;;;;30.39;nan;97747.63;4871592;29;20072;-71
2023/08/28 04:58:40;;;;;;;4.95;2.50;;;;;;;30.66;nan;97753.19;4883121;29;20049;-71
2023/08/28 05:01:09;;;;;;;4.90;2.33;;;;;;;30.99;nan;97749.41;4867183;29;20403;-71
2023/08/28 05:03:41;;;;;;;4.93;2.50;;;;;;;31.26;nan;97756.81;4886845;29;20129;-72
2023/08/28 05:06:19;;;;;;;4.25;2.55;;;;;;;31.30;nan;97760.44;4874827;29;20069;-71
2023/08/28 05:08:49;;;;;;;4.70;2.03;;;;;;;31.61;nan;97754.22;4866401;29;20557;-71
2023/08/28 05:11:18;;;;;;;5.57;2.33;;;;;;;31.68;nan;97754.44;4885574;29;20057;-72
2023/08/28 05:13:48;;;;;;;4.13;2.00;;;;;;;31.84;nan;97751.66;4884114;29;20048;-70
2023/08/28 05:16:17;;;;;;;5.32;2.28;;;;;;;31.20;nan;97756.25;4868467;29;20052;-74
2023/08/28 05:18:47;;;;;;;4.45;2.35;;;;;;;31.65;nan;97747.69;4871213;29;20056;-72
2023/08/28 05:21:16;;;;;;;9.45;2.25;;;;;;;31.99;nan;97748.94;4866528;29;20056;-68
2023/08/28 05:23:46;;;;;;;5.00;1.80;;;;;;;31.77;nan;97746.81;4862094;29;20052;-72
2023/08/28 05:26:15;;;;;;;3.65;2.05;;;;;;;31.88;nan;97747.06;4883983;29;20049;-70
2023/08/28 05:28:45;;;;;;;5.85;2.15;;;;;;;31.54;nan;97734.88;4872013;29;20192;-72
2023/08/28 05:31:14;;;;;;;6.53;1.80;;;;;;;31.26;nan;97739.59;4872657;29;20064;-72
2023/08/28 05:33:44;;;;;;;4.55;2.08;;;;;;;32.09;nan;97742.91;4885246;29;20053;-71
2023/08/28 05:36:14;;;;;;;6.35;2.10;;;;;;;32.26;nan;97738.22;4859261;29;20056;-71
2023/08/28 05:38:46;;;;;;;5.20;1.70;;;;;;;32.16;nan;97730.53;4862978;29;20505;-72
2023/08/28 05:41:17;;;;;;;3.20;1.77;;;;;;;32.11;nan;97733.53;4863902;29;20049;-69
2023/08/28 05:43:47;;;;;;;6.03;2.47;;;;;;;31.78;nan;97728.44;4859531;29;20144;-68
2023/08/28 05:46:26;;;;;;;;;;;;;;;;;;;;;
2023/08/28 05:48:58;;;;;;;3.38;1.90;;;;;;;31.91;nan;97722.50;4882551;29;20067;-68
2023/08/28 05:51:27;;;;;;;6.18;2.10;;;;;;;32.01;nan;97723.91;4876001;29;20158;-67
2023/08/28 05:53:57;;;;;;;6.22;2.55;;;;;;;32.01;nan;97727.44;4877577;29;20049;-68
2023/08/28 05:56:26;;;;;;;5.25;3.30;;;;;;;32.04;nan;97728.69;4872397;29;20073;-68
2023/08/28 05:58:55;;;;;;;4.25;1.95;;;;;;;31.87;nan;97735.31;4883135;29;20055;-68
2023/08/28 06:01:25;;;;;;;9.27;2.80;;;;;;;32.44;nan;97731.16;4860273;29;20060;-67
2023/08/28 06:03:56;;;;;;;5.47;2.15;;;;;;;32.22;nan;97726.38;4885100;29;20059;-67
2023/08/28 06:06:25;;;;;;;8.27;2.47;;;;;;;32.21;nan;97736.53;4871648;29;20053;-67
2023/08/28 06:08:55;;;;;;;5.93;2.20;;;;;;;32.59;nan;97730.28;4882471;29;20185;-68
2023/08/28 06:11:25;;;;;;;6.15;2.42;;;;;;;32.04;nan;97725.94;4875098;29;20132;-68
2023/08/28 06:13:54;;;;;;;8.05;2.75;;;;;;;32.43;nan;97727.63;4880397;29;20151;-68
2023/08/28 06:16:24;;;;;;;6.10;2.45;;;;;;;32.63;nan;97719.44;4875055;29;20133;-68
2023/08/28 06:18:53;;;;;;;6.82;2.80;;;;;;;32.66;nan;97722.25;4874735;29;20057;-68
2023/08/28 06:21:23;;;;;;;10.98;2.85;;;;;;;32.46;nan;97721.41;4878329;29;20380;-67
2023/08/28 06:23:54;;;;;;;6.60;2.20;;;;;;;32.40;nan;97717.38;4877811;29;20141;-67
2023/08/28 06:26:26;;;;;;;7.28;3.03;;;;;;;32.61;nan;97727.19;4877525;29;20053;-67
2023/08/28 06:28:57;;;;;;;5.80;2.45;;;;;;;32.59;nan;97719.31;4850130;29;20062;-66
2023/08/28 06:31:27;;;;;;;3.55;1.88;;;;;;;31.73;nan;97715.81;4860078;29;20080;-68
2023/08/28 06:34:00;;;;;;;5.18;2.25;;;;;;;31.65;nan;97714.84;4877096;29;20148;-67
2023/08/28 06:36:30;;;;;;;4.22;2.13;;;;;;;32.27;nan;97721.38;4876503;29;20168;-67
2023/08/28 06:38:59;;;;;;;8.65;2.28;;;;;;;32.00;nan;97716.81;4883866;29;20055;-68
2023/08/28 06:41:29;;;;;;;5.53;2.45;;;;;;;31.96;nan;97721.44;4875356;29;20426;-68
2023/08/28 06:44:05;;;;;;;4.72;2.53;;;;;;;32.21;nan;97711.06;4862254;29;20045;-67
2023/08/28 06:46:36;;;;;;;4.60;2.50;;;;;;;32.41;nan;97712.69;4882657;29;20060;-67
2023/08/28 06:49:07;;;;;;;3.70;2.25;;;;;;;32.31;nan;97714.03;4879225;29;21104;-67
2023/08/28 06:51:36;;;;;;;5.10;3.03;;;;;;;32.32;nan;97718.38;4878402;29;20044;-67
2023/08/28 06:54:06;;;;;;;5.18;2.55;;;;;;;31.97;nan;97706.59;4875529;29;20057;-67
2023/08/28 06:56:36;;;;;;;7.43;2.38;;;;;;;31.95;nan;97712.44;4880516;29;20545;-68
2023/08/28 06:59:05;;;;;;;5.10;2.17;;;;;;;31.88;nan;97697.75;4880573;29;20148;-67
2023/08/28 07:01:35;;;;;;;4.03;2.20;;;;;;;32.01;nan;97699.22;4879328;29;20053;-67
2023/08/28 07:04:05;;;;;;;6.95;2.70;;;;;;;32.49;nan;97697.97;4879431;29;20131;-68
2023/08/28 07:06:34;;;;;;;6.50;2.65;;;;;;;32.72;nan;97703.56;4878949;29;20135;-68
2023/08/28 07:09:04;;;;;;;4.72;2.50;;;;;;;32.05;nan;97694.63;4882817;29;20152;-67
2023/08/28 07:11:33;;;;;;;8.85;2.50;;;;;;;32.26;nan;97699.84;4885598;29;20056;-68
2023/08/28 07:14:03;;;;;;;6.70;2.65;;;;;;;32.38;nan;97691.47;4884270;29;20525;-68
2023/08/28 07:16:33;;;;;;;6.63;3.08;;;;;;;32.46;nan;97693.19;4875609;29;20049;-71
2023/08/28 07:19:03;;;;;;;6.88;2.88;;;;;;;32.56;nan;97692.63;4866534;29;20045;-71
2023/08/28 07:21:32;;;;;;;8.48;3.42;;;;;;;32.44;nan;97684.56;4881340;29;20500;-68
2023/08/28 07:24:02;;;;;;;7.78;4.05;;;;;;;32.37;nan;97685.19;4880622;29;20052;-70
2023/08/28 07:26:32;;;;;;;7.78;3.75;;;;;;;32.42;nan;97679.44;4877885;29;20470;-69
2023/08/28 07:29:02;;;;;;;9.50;3.80;;;;;;;32.60;nan;97677.06;4876861;29;20057;-69
2023/08/28 07:31:32;;;;;;;8.45;3.90;;;;;;;32.60;nan;97668.03;4884674;29;20051;-72
2023/08/28 07:34:04;;;;;;;8.60;3.78;;;;;;;32.40;nan;97667.22;4869358;29;20048;-72
2023/08/28 07:36:37;;;;;;;8.38;3.88;;;;;;;32.42;nan;97665.72;4885983;29;20060;-68
2023/08/28 07:39:06;;;;;;;;;;;;;;;32.67;nan;97663.50;4887737;29;20052;-69
2023/08/28 07:41:35;;;;;;;9.27;4.13;;;;;;;32.58;nan;97651.13;4875800;29;20625;-69
2023/08/28 07:44:05;;;;;;;12.82;4.70;;;;;;;32.05;nan;97656.28;4874908;29;20054;-69
2023/08/28 07:46:35;;;;;;;8.68;4.47;;;;;;;32.02;nan;97646.03;4881355;29;20124;-69
2023/08/28 07:49:04;;;;;;;16.42;4.75;;;;;;;32.47;nan;97645.44;4880013;29;20052;-68
2023/08/28 07:51:34;;;;;;;9.27;4.53;;;;;;;32.65;nan;97649.38;4881509;29;20555;-69
2023/08/28 07:54:04;;;;;;;8.02;4.88;;;;;;;32.84;nan;97648.56;4882957;29;20064;-70
2023/08/28 07:56:33;;;;;;;11.95;4.80;;;;;;;32.65;nan;97652.09;4879043;29;20473;-69
2023/08/28 07:59:04;;;;;;;11.20;5.15;;;;;;;32.64;nan;97638.75;4881142;29;20060;-67
2023/08/28 08:01:35;;;;;;;8.85;5.38;;;;;;;32.62;nan;97630.88;4872923;29;20389;-72
2023/08/28 08:04:05;;;;;;;10.00;5.22;;;;;;;32.67;nan;97638.00;4875267;29;20055;-71
2023/08/28 08:06:35;;;;;;;12.43;5.78;;;;;;;32.62;nan;97641.06;4877039;29;20057;-71
2023/08/28 08:09:04;;;;;;;15.15;6.47;;;;;;;32.70;nan;97631.81;4886079;29;20112;-72
2023/08/28 08:11:34;;;;;;;15.48;6.38;;;;;;;32.90;nan;97634.16;4882903;29;20063;-71
2023/08/28 08:14:03;;;;;;;11.32;5.93;;;;;;;32.86;nan;97633.31;4880408;29;20080;-71
2023/08/28 08:16:33;;;;;;;13.40;5.60;;;;;;;33.03;nan;97618.31;4869514;29;20063;-71
2023/08/28 08:19:03;;;;;;;11.48;6.38;;;;;;;32.82;nan;97626.16;4886305;29;20048;-72
2023/08/28 08:21:33;;;;;;;10.50;5.60;;;;;;;32.77;nan;97619.03;4884997;29;20124;-71
2023/08/28 08:24:03;;;;;;;13.25;6.30;;;;;;;32.82;nan;97602.28;4883342;29;20452;-71
2023/08/28 08:26:34;;;;;;;14.15;6.28;;;;;;;32.96;nan;97607.22;4877625;29;20049;-71
2023/08/28 08:29:03;;;;;;;13.70;7.55;;;;;;;32.57;nan;97603.75;4883913;29;20068;-68
2023/08/28 08:31:32;;;;;;;13.85;6.82;;;;;;;32.77;nan;97599.03;4880455;29;21401;-69
2023/08/28 08:34:02;;;;;;;14.23;7.47;;;;;;;32.77;nan;97591.59;4881250;29;20493;-69
2023/08/28 08:36:32;;;;;;;17.27;6.55;;;;;;;32.99;nan;97595.50;4863122;29;20568;-69
2023/08/28 08:39:03;;;;;;;13.65;7.13;;;;;;;32.74;nan;97592.34;4884128;29;20049;-69
2023/08/28 08:41:33;;;;;;;14.10;6.10;;;;;;;32.68;nan;97584.75;4873391;29;20052;-69
2023/08/28 08:44:02;;;;;;;16.23;6.57;;;;;;;32.57;nan;97572.78;4875990;29;20064;-70
2023/08/28 08:46:33;;;;;;;16.90;7.13;;;;;;;32.69;nan;97575.38;4880275;29;20052;-69
2023/08/28 08:49:06;;;;;;;17.10;7.00;;;;;;;32.69;nan;97570.69;4879453;29;20465;-70
2023/08/28 08:51:41;;;;;;;15.80;8.35;;;;;;;32.81;nan;97578.75;4878091;29;20048;-70
2023/08/28 08:54:25;;;;;;;16.67;7.57;;;;;;;32.76;nan;97568.06;4860580;29;20049;-68
2023/08/28 08:57:06;;;;;;;17.58;7.55;;;;;;;32.67;nan;97567.50;4881752;29;20729;-68
2023/08/28 08:59:36;;;;;;;14.80;7.72;;;;;;;32.77;nan;97561.44;4874530;29;20049;-68
2023/08/28 09:02:09;;;;;;;15.35;7.57;;;;;;;32.75;nan;97552.75;4874907;29;20123;-70
2023/08/28 09:04:41;;;;;;;11.23;6.80;;;;;;;32.74;nan;97553.16;4880292;29;20048;-69
2023/08/28 09:07:11;;;;;;;16.60;8.10;;;;;;;32.70;nan;97544.06;4877154;29;20637;-70
2023/08/28 09:09:41;;;;;;;14.35;7.18;;;;;;;32.82;nan;97552.09;4878495;29;20049;-70
2023/08/28 09:12:11;;;;;;;14.25;7.75;;;;;;;32.60;nan;97545.44;4877443;29;20081;-69
2023/08/28 09:14:40;;;;;;;25.10;9.43;;;;;;;32.82;nan;97555.66;4880643;29;20136;-68
2023/08/28 09:17:10;;;;;;;15.95;7.90;;;;;;;32.86;nan;97545.53;4878553;29;20057;-69
2023/08/28 09:19:39;;;;;;;16.95;7.28;;;;;;;32.89;nan;97542.03;4882824;29;20056;-70
2023/08/28 09:22:09;;;;;;;15.25;7.72;;;;;;;32.76;nan;97543.38;4850929;29;20060;-70
2023/08/28 09:24:38;;;;;;;18.25;8.43;;;;;;;32.61;nan;97535.25;4878327;29;20088;-70
2023/08/28 09:27:15;;;;;;;16.55;6.93;;;;;;;32.53;nan;97534.31;4878793;29;20052;-71
2023/08/28 09:29:54;;;;;;;18.80;6.78;;;;;;;32.52;nan;97532.75;4879234;29;20055;-71
2023/08/28 09:32:28;;;;;;;16.13;7.65;;;;;;;32.61;nan;97535.25;4873666;29;20535;-71
2023/08/28 09:34:57;;;;;;;19.23;7.85;;;;;;;32.61;nan;97536.06;4875864;29;20053;-69
2023/08/28 09:37:28;;;;;;;17.50;8.45;;;;;;;32.58;nan;97527.75;4862747;29;20060;-68
2023/08/28 09:40:00;;;;;;;18.23;7.32;;;;;;;32.68;nan;97518.94;4860081;29;20049;-70
2023/08/28 09:42:30;;;;;;;16.13;8.88;;;;;;;32.45;nan;97514.22;4866218;29;20044;-68
2023/08/28 09:45:05;;;;;;;17.30;8.73;;;;;;;32.42;nan;97514.16;4880759;29;20053;-69
2023/08/28 09:47:34;;;;;;;19.77;8.20;;;;;;;32.35;nan;97509.31;4870578;29;20056;-72
2023/08/28 09:50:04;;;;;;;22.17;9.00;;;;;;;32.36;nan;97512.84;4877555;29;20052;-68
2023/08/28 09:52:34;;;;;;;21.38;8.80;;;;;;;32.33;nan;97505.38;4876597;29;21054;-69
2023/08/28 09:55:04;;;;;;;20.42;8.45;;;;;;;32.36;nan;97507.38;4877801;29;20396;-69
2023/08/28 09:57:34;;;;;;;21.38;9.75;;;;;;;32.21;nan;97500.88;4876481;29;20057;-70
2023/08/28 10:00:04;;;;;;;23.98;10.48;;;;;;;32.21;nan;97500.88;4879086;29;20048;-69
2023/08/28 10:02:35;;;;;;;20.07;9.10;;;;;;;32.28;nan;97492.75;4874723;29;20056;-70
2023/08/28 10:05:08;;;;;;;22.33;8.75;;;;;;;32.40;nan;97500.00;4872738;29;20148;-70
2023/08/28 10:07:39;;;;;;;14.73;7.50;;;;;;;32.40;nan;97492.56;4864764;29;20060;-69
2023/08/28 10:10:15;;;;;;;17.58;8.02;;;;;;;32.41;nan;97488.69;4875653;29;20049;-69
2023/08/28 10:12:45;;;;;;;17.42;8.40;;;;;;;32.40;nan;97487.09;4882071;29;20059;-71
2023/08/28 10:15:19;;;;;;;18.92;8.05;;;;;;;32.48;nan;97485.28;4878458;29;20899;-69
2023/08/28 10:17:50;;;;;;;21.63;8.63;;;;;;;32.44;nan;97481.69;4882855;29;20063;-74
2023/08/28 10:20:22;;;;;;;14.07;7.10;;;;;;;32.52;nan;97486.16;4880311;29;20500;-71
2023/08/28 10:22:52;;;;;;;26.77;8.60;;;;;;;32.50;nan;97483.75;4881160;29;20870;-71
2023/08/28 10:25:22;;;;;;;18.20;8.45;;;;;;;32.55;nan;97488.16;4882365;29;20288;-70
2023/08/28 10:27:53;;;;;;;22.67;8.40;;;;;;;32.53;nan;97480.28;4864158;29;20614;-66
2023/08/28 10:30:25;;;;;;;25.10;9.90;;;;;;;32.54;nan;97492.03;4885798;29;21384;-69
2023/08/28 10:32:59;;;;;;;24.83;10.93;;;;;;;32.49;nan;97479.44;4880567;29;20052;-68
2023/08/28 10:35:29;;;;;;;21.52;8.98;;;;;;;32.53;nan;97484.97;4880441;29;20060;-67
2023/08/28 10:38:02;;;;;;;16.80;8.23;;;;;;;32.46;nan;97479.38;4884730;29;20062;-69
2023/08/28 10:40:32;;;;;;;22.67;8.93;;;;;;;32.45;nan;97484.06;4884384;29;20049;-67
2023/08/28 10:43:04;;;;;;;20.88;9.07;;;;;;;32.44;nan;97476.22;4881005;29;20057;-69
2023/08/28 10:45:38;;;;;;;18.40;7.80;;;;;;;32.47;nan;97476.28;4876652;29;20063;-66
2023/08/28 10:48:07;;;;;;;22.77;8.82;;;;;;;32.51;nan;97477.13;4880729;29;20063;-68
2023/08/28 10:50:38;;;;;;;21.67;9.32;;;;;;;32.48;nan;97475.13;4882655;29;20057;-70
2023/08/28 10:53:12;;;;;;;19.48;8.02;;;;;;;32.53;nan;97472.06;4876374;29;20058;-69
2023/08/28 10:56:11;;;;;;;22.30;8.68;;;;;;;32.54;nan;97475.59;4874494;29;20049;-68
2023/08/28 10:58:41;;;;;;;22.75;10.02;;;;;;;32.56;nan;97473.28;4866882;29;20045;-69
2023/08/28 11:01:17;;;;;;;18.08;8.60;;;;;;;32.50;nan;97474.75;4868717;29;20085;-70
2023/08/28 11:03:58;;;;;;;19.23;9.15;;;;;;;32.40;nan;97469.84;4882034;29;20632;-70
2023/08/28 11:06:39;;;;;;;22.27;8.60;;;;;;;32.32;nan;97474.44;4876546;29;20147;-70
2023/08/28 11:09:29;;;;;;;21.52;8.57;;;;;;;32.35;nan;97470.94;4530905;29;10000478;-68
2023/08/28 11:11:59;;;;;;;20.63;8.77;;;;;;;32.37;nan;97473.34;4878151;29;20071;-68
2023/08/28 11:14:33;;;;;;;25.05;8.98;;;;;;;32.24;nan;97472.72;4876191;29;20061;-68
2023/08/28 11:17:09;;;;;;;22.40;9.68;;;;;;;32.21;nan;97467.97;4880597;29;20113;-69
2023/08/28 11:19:54;;;;;;;20.02;8.45;;;;;;;32.20;nan;97466.38;4878398;29;20049;-69
2023/08/28 11:22:34;;;;;;;22.58;9.10;;;;;;;32.07;nan;97464.94;4876453;29;20060;-69
2023/08/28 11:25:17;;;;;;;22.55;9.43;;;;;;;32.07;nan;97463.00;4876318;29;20044;-69
2023/08/28 11:27:48;;;;;;;17.58;8.85;;;;;;;32.13;nan;97462.72;4883876;29;20056;-70
2023/08/28 11:30:20;;;;;;;21.83;9.10;;;;;;;32.05;nan;97462.56;4861598;29;20140;-70
2023/08/28 11:32:52;;;;;;;22.63;8.77;;;;;;;31.92;nan;97458.38;4880841;29;20108;-71
2023/08/28 11:35:23;;;;;;;18.50;8.50;;;;;;;31.84;nan;97458.63;4883153;29;20063;-71
2023/08/28 11:37:55;;;;;;;21.23;7.65;;;;;;;31.79;nan;97462.44;4867503;29;20060;-70
2023/08/28 11:40:26;;;;;;;17.50;9.35;;;;;;;31.75;nan;97453.38;4877643;29;20049;-71
2023/08/28 11:43:10;;;;;;;24.05;9.98;;;;;;;31.65;nan;97459.41;4882415;29;20142;-71
2023/08/28 11:45:42;;;;;;;24.77;9.30;;;;;;;31.55;nan;97452.59;4867906;29;20221;-70
2023/08/28 11:48:11;;;;;;;21.38;9.35;;;;;;;31.44;nan;97456.19;4880741;29;20467;-70
2023/08/28 11:50:41;;;;;;;24.42;9.02;;;;;;;31.45;nan;97453.13;4880614;29;20057;-71
2023/08/28 11:53:10;;;;;;;35.56;10.56;;;;;;;31.47;nan;97458.22;4538568;29;10000973;-72
2023/08/28 11:55:40;;;;;;;21.77;9.60;;;;;;;31.36;nan;97457.22;4877346;29;20053;-72
2023/08/28 11:58:09;;;;;;;23.20;9.57;;;;;;;31.37;nan;97456.88;4883650;29;20608;-74
2023/08/28 12:00:41;;;;;;;22.58;11.32;;;;;;;31.30;nan;97456.69;4885314;29;20067;-75
2023/08/28 12:03:18;;;;;;;32.60;9.82;;;;;;;31.29;nan;97452.38;4877220;29;20049;-74
2023/08/28 12:05:48;;;;;;;25.95;11.75;;;;;;;31.23;nan;97448.34;4880362;29;20052;-74